Pathfinder — WDD7777 — position and weather

sailwx.info

Track history (hours):
 
Tides and Currents Weather Stations Pressure Air Temp Water Temp Dewpoint Dewpoint Depression Visibility Wind Speed Wind Dir Waves Ship Positions

Pathfinder

Owner: Milton Point LLC, Norfolk, VA. More information available from US FCC via Universal Licensing System and Coast Guard Vessel Documentation Center.

Last reported at 2018-Jun-21 19:30 UTC. Time now 2018-Jun-21 19:54 UTC.
Position N 40°42' W 074°00'.

Length 31 m; draft 4.1 m.

Type: Towing. MMSI: 367191190.

Date/timePositionNaut miles runAvg speedWind from/ knotsBaromVisibWave heightAir tempDewpointWater temp
2018-Jun-21 19:30N 40°42' W 074°00'3 6.1
2018-Jun-21 19:00N 40°40' W 074°03'3 5.0
2018-Jun-21 18:30N 40°39' W 074°06'2 4.4
2018-Jun-21 18:00N 40°39' W 074°09'2 3.8
2018-Jun-21 17:30N 40°38' W 074°12'0 0.0
2018-Jun-21 16:20N 40°38' W 074°12'1 2.3
2018-Jun-21 15:58N 40°39' W 074°11'3 5.7
2018-Jun-21 15:30N 40°39' W 074°07'2 5.0
2018-Jun-21 15:00N 40°40' W 074°04'3 5.5
2018-Jun-21 14:30N 40°41' W 074°01'3 5.2
2018-Jun-21 14:00N 40°43' W 073°58'4 7.1
2018-Jun-21 13:24N 40°47' W 073°56'3 6.3
2018-Jun-21 12:59N 40°48' W 073°53'1 0.1
2018-Jun-20 19:18N 40°47' W 073°52'4 5.5
2018-Jun-20 18:30N 40°46' W 073°57'3 7.1
2018-Jun-20 18:00N 40°43' W 073°59'3 6.6
2018-Jun-20 17:30N 40°40' W 074°02'3 5.1
2018-Jun-20 17:00N 40°39' W 074°05'2 4.1
2018-Jun-20 16:30N 40°39' W 074°08'2 4.6
2018-Jun-20 16:00N 40°39' W 074°11'1 1.4
2018-Jun-20 15:21N 40°38' W 074°12'1 3.0
2018-Jun-20 14:58N 40°39' W 074°10'3 6.2
2018-Jun-20 14:30N 40°39' W 074°06'2 4.9
2018-Jun-20 14:00N 40°40' W 074°03'3 5.4
2018-Jun-20 13:30N 40°41' W 074°01'3 5.7
2018-Jun-20 13:00N 40°44' W 073°58'4 7.0
2018-Jun-20 12:28N 40°47' W 073°55'2 0.2
2018-Jun-20 02:48N 40°46' W 073°57'2 6.0
2018-Jun-20 02:30N 40°44' W 073°58'2 4.8
2018-Jun-20 02:00N 40°42' W 073°60'2 5.0
2018-Jun-20 01:30N 40°40' W 074°02'2 4.2
2018-Jun-20 01:00N 40°39' W 074°04'3 5.5
2018-Jun-20 00:30N 40°39' W 074°08'3 4.8
2018-Jun-19 23:56N 40°38' W 074°12'0 0.0
2018-Jun-19 23:27N 40°38' W 074°12'0 0.0
2018-Jun-19 21:52N 40°38' W 074°12'0 0.0
2018-Jun-19 21:11N 40°38' W 074°12'0 0.0
2018-Jun-19 20:56N 40°38' W 074°12'0 0.1
2018-Jun-19 20:29N 40°38' W 074°12'0 0.0
2018-Jun-19 20:00N 40°38' W 074°12'0 0.0
2018-Jun-19 19:30N 40°38' W 074°12'0 0.0
2018-Jun-19 19:00N 40°38' W 074°12'0 0.0
2018-Jun-19 18:30N 40°38' W 074°12'0 0.0
2018-Jun-19 17:59N 40°38' W 074°12'0 0.0
2018-Jun-19 17:29N 40°38' W 074°12'0 0.0
2018-Jun-19 17:00N 40°38' W 074°12'0 0.0
2018-Jun-19 16:29N 40°38' W 074°12'2 3.3
2018-Jun-19 16:00N 40°39' W 074°10'3 5.1
2018-Jun-19 15:28N 40°39' W 074°06'2 4.9
2018-Jun-19 15:01N 40°40' W 074°03'2 4.7
2018-Jun-19 14:30N 40°41' W 074°01'2 3.7
2018-Jun-19 14:00N 40°43' W 073°59'2 3.9
2018-Jun-19 13:30N 40°44' W 073°58'2 0.1
2018-Jun-19 01:38N 40°46' W 073°57'1 7.6
2018-Jun-19 01:30N 40°45' W 073°58'3 5.9
2018-Jun-19 01:00N 40°42' W 073°60'3 5.3
2018-Jun-19 00:30N 40°40' W 074°02'2 4.5
2018-Jun-19 00:00N 40°39' W 074°05'3 5.2
2018-Jun-18 23:30N 40°39' W 074°08'3 5.0
2018-Jun-18 23:00N 40°39' W 074°11'0 0.5
2018-Jun-18 22:30N 40°39' W 074°11'3 5.2
2018-Jun-18 22:00N 40°39' W 074°08'2 4.3
2018-Jun-18 21:30N 40°39' W 074°05'2 4.2
2018-Jun-18 21:00N 40°40' W 074°03'3 5.3
2018-Jun-18 20:30N 40°42' W 074°00'3 5.8
2018-Jun-18 20:00N 40°44' W 073°58'5 6.0
2018-Jun-18 19:07N 40°48' W 073°53'3 0.3
2018-Jun-18 09:20N 40°46' W 073°51'0 0.0
2018-Jun-18 08:48N 40°46' W 073°51'0 0.0
2018-Jun-18 08:30N 40°46' W 073°51'0 0.0
2018-Jun-18 08:00N 40°46' W 073°51'5 0.1
2018-Jun-16 14:02N 40°46' W 073°57'0 6.9
2018-Jun-16 14:00N 40°46' W 073°57'3 6.7
2018-Jun-16 13:31N 40°42' W 073°59'3 6.1
2018-Jun-16 13:01N 40°40' W 074°02'2 4.4
2018-Jun-16 12:30N 40°39' W 074°04'2 3.3
2018-Jun-16 12:00N 40°39' W 074°06'2 3.0
2018-Jun-16 11:30N 40°39' W 074°08'2 3.5
2018-Jun-16 11:00N 40°39' W 074°11'1 1.5
2018-Jun-16 10:27N 40°38' W 074°12'2 4.5
2018-Jun-16 09:59N 40°39' W 074°09'2 4.7
2018-Jun-16 09:30N 40°39' W 074°06'2 3.7
2018-Jun-16 09:00N 40°40' W 074°04'3 5.5
2018-Jun-16 08:30N 40°41' W 074°01'3 6.0
2018-Jun-16 08:00N 40°43' W 073°58'4 6.9
2018-Jun-16 07:29N 40°47' W 073°56'3 4.8
2018-Jun-16 06:49N 40°48' W 073°52'4 0.1
2018-Jun-15 00:49N 40°46' W 073°57'2 7.3
2018-Jun-15 00:30N 40°44' W 073°58'4 7.0
2018-Jun-15 00:00N 40°41' W 074°01'3 6.2
2018-Jun-14 23:30N 40°39' W 074°04'2 3.6
2018-Jun-14 23:00N 40°39' W 074°07'2 3.7
2018-Jun-14 22:30N 40°39' W 074°09'2 3.5
2018-Jun-14 21:57N 40°38' W 074°12'1 2.8
2018-Jun-14 21:29N 40°39' W 074°10'3 5.5
2018-Jun-14 20:59N 40°39' W 074°06'3 5.2
2018-Jun-14 20:30N 40°40' W 074°03'3 5.7
2018-Jun-14 20:00N 40°41' W 074°01'3 5.8
2018-Jun-14 19:30N 40°44' W 073°58'4 7.6
2018-Jun-14 19:00N 40°47' W 073°55'3 5.2
2018-Jun-14 18:28N 40°48' W 073°52'4 0.2
2018-Jun-14 00:20N 40°46' W 073°57'2 6.9
2018-Jun-14 00:00N 40°44' W 073°58'3 6.7
2018-Jun-13 23:30N 40°41' W 074°01'3 5.6
2018-Jun-13 23:00N 40°40' W 074°04'3 5.3
2018-Jun-13 22:30N 40°39' W 074°07'2 3.5
2018-Jun-13 21:59N 40°39' W 074°10'2 2.5
2018-Jun-13 21:23N 40°38' W 074°12'1 3.7
2018-Jun-13 21:00N 40°39' W 074°10'2 4.3
2018-Jun-13 20:30N 40°39' W 074°07'2 4.9
2018-Jun-13 20:01N 40°40' W 074°04'3 5.1
2018-Jun-13 19:30N 40°41' W 074°01'3 5.3
2018-Jun-13 19:00N 40°43' W 073°58'3 6.6
2018-Jun-13 18:30N 40°46' W 073°57'4 6.2
2018-Jun-13 17:50N 40°48' W 073°52'4 0.5
2018-Jun-13 09:06N 40°46' W 073°57'1 9.3
2018-Jun-13 09:00N 40°45' W 073°58'3 6.9
2018-Jun-13 08:30N 40°42' W 074°00'3 5.6
2018-Jun-13 08:00N 40°40' W 074°03'3 5.6
2018-Jun-13 07:30N 40°39' W 074°06'3 5.6
2018-Jun-13 07:00N 40°39' W 074°10'2 2.0
2018-Jun-13 06:13N 40°38' W 074°12'0 1.7
2018-Jun-13 06:00N 40°39' W 074°11'2 4.6
2018-Jun-13 05:30N 40°39' W 074°08'2 4.5
2018-Jun-13 05:00N 40°39' W 074°05'2 4.1
2018-Jun-13 04:30N 40°40' W 074°03'3 5.8
2018-Jun-13 04:00N 40°42' W 074°00'3 5.9
2018-Jun-13 03:30N 40°45' W 073°58'1 0.3
2018-Jun-12 22:00N 40°46' W 073°57'4 7.4
2018-Jun-12 21:30N 40°42' W 073°59'3 6.8
2018-Jun-12 21:00N 40°40' W 074°03'2 4.4
2018-Jun-12 20:30N 40°39' W 074°05'2 3.2
2018-Jun-12 20:00N 40°39' W 074°07'2 3.5
2018-Jun-12 19:25N 40°39' W 074°10'1 0.5
2018-Jun-12 16:26N 40°38' W 074°12'0 0.0
2018-Jun-12 14:41N 40°38' W 074°12'0 0.0
2018-Jun-12 09:19N 40°38' W 074°12'0 0.0
2018-Jun-12 07:10N 40°38' W 074°12'0 0.0
2018-Jun-12 06:54N 40°38' W 074°12'0 0.0
2018-Jun-12 06:30N 40°38' W 074°12'3 3.4
2018-Jun-12 05:32N 40°39' W 074°07'0 5.3
2018-Jun-12 05:30N 40°39' W 074°07'2 4.6
2018-Jun-12 05:00N 40°40' W 074°04'3 6.3
2018-Jun-12 04:29N 40°42' W 074°01'3 6.7
2018-Jun-12 03:58N 40°44' W 073°58'1 0.3
2018-Jun-11 23:19N 40°46' W 073°57'4 7.2
2018-Jun-11 22:45N 40°42' W 074°00'2 7.3
2018-Jun-11 22:30N 40°41' W 074°02'3 6.1
2018-Jun-11 22:00N 40°39' W 074°05'2 4.7
2018-Jun-11 21:28N 40°39' W 074°08'  
Track history (hours):
 
Tides and Currents Weather Stations Pressure Air Temp Water Temp Dewpoint Dewpoint Depression Visibility Wind Speed Wind Dir Waves Ship Positions

Pathfinder

Owner: Milton Point LLC, Norfolk, VA. More information available from US FCC via Universal Licensing System and Coast Guard Vessel Documentation Center.

Last reported at 2018-Jun-21 19:30 UTC. Time now 2018-Jun-21 19:54 UTC.
Position N 40°42' W 074°00'.

Length 31 m; draft 4.1 m.

Type: Towing. MMSI: 367191190.

Date/timePositionNaut miles runAvg speedWind from/ knotsBaromVisibWave heightAir tempDewpointWater temp
2018-Jun-21 19:30N 40°42' W 074°00'3 6.1
2018-Jun-21 19:00N 40°40' W 074°03'3 5.0
2018-Jun-21 18:30N 40°39' W 074°06'2 4.4
2018-Jun-21 18:00N 40°39' W 074°09'2 3.8
2018-Jun-21 17:30N 40°38' W 074°12'0 0.0
2018-Jun-21 16:20N 40°38' W 074°12'1 2.3
2018-Jun-21 15:58N 40°39' W 074°11'3 5.7
2018-Jun-21 15:30N 40°39' W 074°07'2 5.0
2018-Jun-21 15:00N 40°40' W 074°04'3 5.5
2018-Jun-21 14:30N 40°41' W 074°01'3 5.2
2018-Jun-21 14:00N 40°43' W 073°58'4 7.1
2018-Jun-21 13:24N 40°47' W 073°56'3 6.3
2018-Jun-21 12:59N 40°48' W 073°53'1 0.1
2018-Jun-20 19:18N 40°47' W 073°52'4 5.5
2018-Jun-20 18:30N 40°46' W 073°57'3 7.1
2018-Jun-20 18:00N 40°43' W 073°59'3 6.6
2018-Jun-20 17:30N 40°40' W 074°02'3 5.1
2018-Jun-20 17:00N 40°39' W 074°05'2 4.1
2018-Jun-20 16:30N 40°39' W 074°08'2 4.6
2018-Jun-20 16:00N 40°39' W 074°11'1 1.4
2018-Jun-20 15:21N 40°38' W 074°12'1 3.0
2018-Jun-20 14:58N 40°39' W 074°10'3 6.2
2018-Jun-20 14:30N 40°39' W 074°06'2 4.9
2018-Jun-20 14:00N 40°40' W 074°03'3 5.4
2018-Jun-20 13:30N 40°41' W 074°01'3 5.7
2018-Jun-20 13:00N 40°44' W 073°58'4 7.0
2018-Jun-20 12:28N 40°47' W 073°55'2 0.2
2018-Jun-20 02:48N 40°46' W 073°57'2 6.0
2018-Jun-20 02:30N 40°44' W 073°58'2 4.8
2018-Jun-20 02:00N 40°42' W 073°60'2 5.0
2018-Jun-20 01:30N 40°40' W 074°02'2 4.2
2018-Jun-20 01:00N 40°39' W 074°04'3 5.5
2018-Jun-20 00:30N 40°39' W 074°08'3 4.8
2018-Jun-19 23:56N 40°38' W 074°12'0 0.0
2018-Jun-19 23:27N 40°38' W 074°12'0 0.0
2018-Jun-19 21:52N 40°38' W 074°12'0 0.0
2018-Jun-19 21:11N 40°38' W 074°12'0 0.0
2018-Jun-19 20:56N 40°38' W 074°12'0 0.1
2018-Jun-19 20:29N 40°38' W 074°12'0 0.0
2018-Jun-19 20:00N 40°38' W 074°12'0 0.0
2018-Jun-19 19:30N 40°38' W 074°12'0 0.0
2018-Jun-19 19:00N 40°38' W 074°12'0 0.0
2018-Jun-19 18:30N 40°38' W 074°12'0 0.0
2018-Jun-19 17:59N 40°38' W 074°12'0 0.0
2018-Jun-19 17:29N 40°38' W 074°12'0 0.0
2018-Jun-19 17:00N 40°38' W 074°12'0 0.0
2018-Jun-19 16:29N 40°38' W 074°12'2 3.3
2018-Jun-19 16:00N 40°39' W 074°10'3 5.1
2018-Jun-19 15:28N 40°39' W 074°06'2 4.9
2018-Jun-19 15:01N 40°40' W 074°03'2 4.7
2018-Jun-19 14:30N 40°41' W 074°01'2 3.7
2018-Jun-19 14:00N 40°43' W 073°59'2 3.9
2018-Jun-19 13:30N 40°44' W 073°58'2 0.1
2018-Jun-19 01:38N 40°46' W 073°57'1 7.6
2018-Jun-19 01:30N 40°45' W 073°58'3 5.9
2018-Jun-19 01:00N 40°42' W 073°60'3 5.3
2018-Jun-19 00:30N 40°40' W 074°02'2 4.5
2018-Jun-19 00:00N 40°39' W 074°05'3 5.2
2018-Jun-18 23:30N 40°39' W 074°08'3 5.0
2018-Jun-18 23:00N 40°39' W 074°11'0 0.5
2018-Jun-18 22:30N 40°39' W 074°11'3 5.2
2018-Jun-18 22:00N 40°39' W 074°08'2 4.3
2018-Jun-18 21:30N 40°39' W 074°05'2 4.2
2018-Jun-18 21:00N 40°40' W 074°03'3 5.3
2018-Jun-18 20:30N 40°42' W 074°00'3 5.8
2018-Jun-18 20:00N 40°44' W 073°58'5 6.0
2018-Jun-18 19:07N 40°48' W 073°53'3 0.3
2018-Jun-18 09:20N 40°46' W 073°51'0 0.0
2018-Jun-18 08:48N 40°46' W 073°51'0 0.0
2018-Jun-18 08:30N 40°46' W 073°51'0 0.0
2018-Jun-18 08:00N 40°46' W 073°51'5 0.1
2018-Jun-16 14:02N 40°46' W 073°57'0 6.9
2018-Jun-16 14:00N 40°46' W 073°57'3 6.7
2018-Jun-16 13:31N 40°42' W 073°59'3 6.1
2018-Jun-16 13:01N 40°40' W 074°02'2 4.4
2018-Jun-16 12:30N 40°39' W 074°04'2 3.3
2018-Jun-16 12:00N 40°39' W 074°06'2 3.0
2018-Jun-16 11:30N 40°39' W 074°08'2 3.5
2018-Jun-16 11:00N 40°39' W 074°11'1 1.5
2018-Jun-16 10:27N 40°38' W 074°12'2 4.5
2018-Jun-16 09:59N 40°39' W 074°09'2 4.7
2018-Jun-16 09:30N 40°39' W 074°06'2 3.7
2018-Jun-16 09:00N 40°40' W 074°04'3 5.5
2018-Jun-16 08:30N 40°41' W 074°01'3 6.0
2018-Jun-16 08:00N 40°43' W 073°58'4 6.9
2018-Jun-16 07:29N 40°47' W 073°56'3 4.8
2018-Jun-16 06:49N 40°48' W 073°52'4 0.1
2018-Jun-15 00:49N 40°46' W 073°57'2 7.3
2018-Jun-15 00:30N 40°44' W 073°58'4 7.0
2018-Jun-15 00:00N 40°41' W 074°01'3 6.2
2018-Jun-14 23:30N 40°39' W 074°04'2 3.6
2018-Jun-14 23:00N 40°39' W 074°07'2 3.7
2018-Jun-14 22:30N 40°39' W 074°09'2 3.5
2018-Jun-14 21:57N 40°38' W 074°12'1 2.8
2018-Jun-14 21:29N 40°39' W 074°10'3 5.5
2018-Jun-14 20:59N 40°39' W 074°06'3 5.2
2018-Jun-14 20:30N 40°40' W 074°03'3 5.7
2018-Jun-14 20:00N 40°41' W 074°01'3 5.8
2018-Jun-14 19:30N 40°44' W 073°58'4 7.6
2018-Jun-14 19:00N 40°47' W 073°55'3 5.2
2018-Jun-14 18:28N 40°48' W 073°52'4 0.2
2018-Jun-14 00:20N 40°46' W 073°57'2 6.9
2018-Jun-14 00:00N 40°44' W 073°58'3 6.7
2018-Jun-13 23:30N 40°41' W 074°01'3 5.6
2018-Jun-13 23:00N 40°40' W 074°04'3 5.3
2018-Jun-13 22:30N 40°39' W 074°07'2 3.5
2018-Jun-13 21:59N 40°39' W 074°10'2 2.5
2018-Jun-13 21:23N 40°38' W 074°12'1 3.7
2018-Jun-13 21:00N 40°39' W 074°10'2 4.3
2018-Jun-13 20:30N 40°39' W 074°07'2 4.9
2018-Jun-13 20:01N 40°40' W 074°04'3 5.1
2018-Jun-13 19:30N 40°41' W 074°01'3 5.3
2018-Jun-13 19:00N 40°43' W 073°58'3 6.6
2018-Jun-13 18:30N 40°46' W 073°57'4 6.2
2018-Jun-13 17:50N 40°48' W 073°52'4 0.5
2018-Jun-13 09:06N 40°46' W 073°57'1 9.3
2018-Jun-13 09:00N 40°45' W 073°58'3 6.9
2018-Jun-13 08:30N 40°42' W 074°00'3 5.6
2018-Jun-13 08:00N 40°40' W 074°03'3 5.6
2018-Jun-13 07:30N 40°39' W 074°06'3 5.6
2018-Jun-13 07:00N 40°39' W 074°10'2 2.0
2018-Jun-13 06:13N 40°38' W 074°12'0 1.7
2018-Jun-13 06:00N 40°39' W 074°11'2 4.6
2018-Jun-13 05:30N 40°39' W 074°08'2 4.5
2018-Jun-13 05:00N 40°39' W 074°05'2 4.1
2018-Jun-13 04:30N 40°40' W 074°03'3 5.8
2018-Jun-13 04:00N 40°42' W 074°00'3 5.9
2018-Jun-13 03:30N 40°45' W 073°58'1 0.3
2018-Jun-12 22:00N 40°46' W 073°57'4 7.4
2018-Jun-12 21:30N 40°42' W 073°59'3 6.8
2018-Jun-12 21:00N 40°40' W 074°03'2 4.4
2018-Jun-12 20:30N 40°39' W 074°05'2 3.2
2018-Jun-12 20:00N 40°39' W 074°07'2 3.5
2018-Jun-12 19:25N 40°39' W 074°10'1 0.5
2018-Jun-12 16:26N 40°38' W 074°12'0 0.0
2018-Jun-12 14:41N 40°38' W 074°12'0 0.0
2018-Jun-12 09:19N 40°38' W 074°12'0 0.0
2018-Jun-12 07:10N 40°38' W 074°12'0 0.0
2018-Jun-12 06:54N 40°38' W 074°12'0 0.0
2018-Jun-12 06:30N 40°38' W 074°12'3 3.4
2018-Jun-12 05:32N 40°39' W 074°07'0 5.3
2018-Jun-12 05:30N 40°39' W 074°07'2 4.6
2018-Jun-12 05:00N 40°40' W 074°04'3 6.3
2018-Jun-12 04:29N 40°42' W 074°01'3 6.7
2018-Jun-12 03:58N 40°44' W 073°58'1 0.3
2018-Jun-11 23:19N 40°46' W 073°57'4 7.2
2018-Jun-11 22:45N 40°42' W 074°00'2 7.3
2018-Jun-11 22:30N 40°41' W 074°02'3 6.1
2018-Jun-11 22:00N 40°39' W 074°05'2 4.7
2018-Jun-11 21:28N 40°39' W 074°08'  

Dump ship's entire track history